Time;durP1;ratioP1;P1;durP2;ratioP2;P2;SDS_P1;SDS_P2;PMS_P1;PMS_P2;Temp;Humidity;BMP_temperature;BMP_pressure;BME280_temperature;BME280_humidity;BME280_pressure;Samples;Min_cycle;Max_cycle;Signal;HPM_P1;HPM_P2
2022/03/16 00:00:48;;;;;;;11.43;11.03;;;6.50;99.90;;;;;;5107743;28;20232;-82
2022/03/16 00:03:17;;;;;;;11.40;11.00;;;6.50;99.90;;;;;;5111577;28;20222;-80
2022/03/16 00:05:45;;;;;;;11.60;11.20;;;6.40;99.90;;;;;;5118172;27;20210;-80
2022/03/16 00:08:16;;;;;;;11.50;11.10;;;6.40;99.90;;;;;;5107766;27;20318;-81
2022/03/16 00:10:44;;;;;;;11.50;11.10;;;6.30;99.90;;;;;;5092290;28;20690;-81
2022/03/16 00:13:12;;;;;;;11.57;11.17;;;6.30;99.90;;;;;;5100161;28;20225;-81
2022/03/16 00:15:39;;;;;;;11.73;11.33;;;6.20;99.90;;;;;;5100567;28;20240;-82
2022/03/16 00:18:07;;;;;;;11.70;11.30;;;6.30;99.90;;;;;;5099883;28;20291;-81
2022/03/16 00:20:36;;;;;;;11.63;11.23;;;6.30;99.90;;;;;;5100421;28;20256;-80
2022/03/16 00:23:04;;;;;;;11.67;11.27;;;6.40;99.90;;;;;;5099325;28;20256;-81
2022/03/16 00:25:32;;;;;;;11.60;11.20;;;6.40;99.90;;;;;;5099507;28;20255;-81
2022/03/16 00:28:05;;;;;;;11.40;11.00;;;6.50;99.90;;;;;;5100105;28;20229;-81
2022/03/16 00:30:33;;;;;;;11.30;10.90;;;6.60;99.90;;;;;;5099262;28;20229;-81
2022/03/16 00:33:01;;;;;;;11.60;11.20;;;6.60;99.90;;;;;;5099082;28;20229;-81
2022/03/16 00:35:28;;;;;;;11.50;11.10;;;6.70;99.90;;;;;;5095587;28;20226;-81
2022/03/16 00:37:58;;;;;;;11.27;10.87;;;6.60;99.90;;;;;;5090922;28;20279;-81
2022/03/16 00:40:25;;;;;;;11.60;11.20;;;6.70;99.90;;;;;;5099868;28;20291;-81
2022/03/16 00:42:53;;;;;;;11.70;11.30;;;6.70;99.90;;;;;;5101368;28;20241;-82
2022/03/16 00:45:21;;;;;;;11.70;11.30;;;6.60;99.90;;;;;;5099255;28;20233;-81
2022/03/16 00:47:48;;;;;;;11.70;11.30;;;6.60;99.90;;;;;;5099973;28;20229;-81
2022/03/16 00:50:16;;;;;;;11.57;11.17;;;6.60;99.90;;;;;;5100351;28;20233;-81
2022/03/16 00:52:44;;;;;;;11.53;11.13;;;6.50;99.90;;;;;;5099036;28;20232;-81
2022/03/16 00:55:13;;;;;;;11.40;11.00;;;6.50;99.90;;;;;;5150619;22;20209;-81
2022/03/16 00:57:41;;;;;;;11.57;11.17;;;6.50;99.90;;;;;;5119708;28;20210;-81
2022/03/16 01:00:12;;;;;;;11.60;11.20;;;6.50;99.90;;;;;;5120727;27;20210;-79
2022/03/16 01:02:42;;;;;;;11.47;11.07;;;6.50;99.90;;;;;;5117244;27;20226;-82
2022/03/16 01:05:11;;;;;;;11.33;10.93;;;6.50;99.90;;;;;;5087288;28;20258;-81
2022/03/16 01:07:40;;;;;;;11.40;11.00;;;6.50;99.90;;;;;;5084696;28;20233;-82
2022/03/16 01:10:10;;;;;;;11.47;11.07;;;6.50;99.90;;;;;;5075847;28;20230;-82
2022/03/16 01:12:49;;;;;;;11.50;11.10;;;6.40;99.90;;;;;;5074506;28;20289;-81
2022/03/16 01:15:23;;;;;;;11.50;11.10;;;6.30;99.90;;;;;;5069995;28;20230;-84
2022/03/16 01:17:56;;;;;;;11.50;11.10;;;6.30;99.90;;;;;;5070339;28;20241;-83
2022/03/16 01:20:25;;;;;;;11.30;10.90;;;6.30;99.90;;;;;;5066774;28;20350;-84
2022/03/16 01:22:54;;;;;;;11.40;11.00;;;6.30;99.90;;;;;;5073906;28;20222;-81
2022/03/16 01:25:24;;;;;;;11.30;10.90;;;6.40;99.90;;;;;;5102269;28;20218;-81
2022/03/16 01:28:02;;;;;;;11.27;10.87;;;6.40;99.90;;;;;;5123339;28;20217;-80
2022/03/16 01:30:32;;;;;;;11.53;11.13;;;6.30;99.90;;;;;;5108284;28;20241;-83
2022/03/16 01:33:01;;;;;;;11.33;10.93;;;6.40;99.90;;;;;;5107047;28;20229;-81
2022/03/16 01:35:30;;;;;;;11.40;11.00;;;6.50;99.90;;;;;;5106108;28;20237;-83
2022/03/16 01:38:00;;;;;;;11.50;11.10;;;6.50;99.90;;;;;;5106889;28;20229;-83
2022/03/16 01:40:29;;;;;;;11.60;11.20;;;6.40;99.90;;;;;;5105388;28;20229;-83
2022/03/16 01:43:08;;;;;;;11.70;11.30;;;6.50;99.90;;;;;;5107135;28;20233;-84
2022/03/16 01:45:39;;;;;;;11.40;11.00;;;6.50;99.90;;;;;;5089430;28;20229;-82
2022/03/16 01:48:06;;;;;;;11.50;11.10;;;6.50;99.90;;;;;;5106382;28;20264;-83
2022/03/16 01:50:36;;;;;;;11.50;11.10;;;6.50;99.90;;;;;;5107475;28;20240;-83
2022/03/16 01:53:08;;;;;;;11.47;11.07;;;6.50;99.90;;;;;;5108404;28;20244;-83
2022/03/16 01:55:37;;;;;;;11.50;11.10;;;6.50;99.90;;;;;;5084354;28;20238;-83
2022/03/16 01:58:17;;;;;;;11.60;11.20;;;6.50;99.90;;;;;;5065259;28;20231;-83
2022/03/16 02:00:45;;;;;;;11.60;11.20;;;6.60;99.90;;;;;;5065833;28;20241;-84
2022/03/16 02:03:13;;;;;;;11.30;10.90;;;6.50;99.90;;;;;;5064145;28;20242;-83
2022/03/16 02:05:43;;;;;;;11.60;11.20;;;6.50;99.90;;;;;;5065634;28;20235;-84
2022/03/16 02:08:12;;;;;;;11.50;11.10;;;6.50;99.90;;;;;;5066139;28;20226;-84
2022/03/16 02:10:42;;;;;;;11.47;11.07;;;6.50;99.90;;;;;;5065110;28;20300;-83
2022/03/16 02:15:58;;;;;;;11.53;11.13;;;6.40;99.90;;;;;;5064602;28;20234;-84
2022/03/16 02:18:28;;;;;;;11.50;11.10;;;6.50;99.90;;;;;;5065104;28;20231;-84
2022/03/16 02:20:58;;;;;;;11.63;11.23;;;6.50;99.90;;;;;;5065155;28;20310;-83
2022/03/16 02:23:35;;;;;;;11.50;11.10;;;6.40;99.90;;;;;;5064766;28;20330;-84
2022/03/16 02:26:05;;;;;;;11.60;11.20;;;6.40;99.90;;;;;;5064608;28;20226;-84
2022/03/16 02:28:34;;;;;;;11.40;11.00;;;6.40;99.90;;;;;;5064758;28;20226;-84
2022/03/16 02:31:04;;;;;;;11.53;11.13;;;6.30;99.90;;;;;;5064624;28;20732;-83
2022/03/16 02:33:33;;;;;;;11.40;11.00;;;6.40;99.90;;;;;;5064814;28;20235;-84
2022/03/16 02:36:03;;;;;;;11.50;11.10;;;6.40;99.90;;;;;;5068697;28;20214;-84
2022/03/16 02:38:41;;;;;;;11.43;11.03;;;6.40;99.90;;;;;;5069572;28;20226;-83
2022/03/16 02:41:10;;;;;;;11.43;11.03;;;6.40;99.90;;;;;;5068118;28;20231;-84
2022/03/16 02:43:40;;;;;;;11.33;10.93;;;6.50;99.90;;;;;;5068299;28;20230;-84
2022/03/16 02:46:09;;;;;;;11.53;11.13;;;6.40;99.90;;;;;;5066238;28;20231;-84
2022/03/16 02:48:39;;;;;;;11.37;10.97;;;6.50;99.90;;;;;;5064964;28;20247;-84
2022/03/16 02:51:08;;;;;;;11.60;11.20;;;6.40;99.90;;;;;;5064231;28;20231;-84
2022/03/16 02:53:46;;;;;;;11.50;11.10;;;6.30;99.90;;;;;;5064382;28;20215;-84
2022/03/16 02:56:16;;;;;;;11.70;11.30;;;6.30;99.90;;;;;;5064453;28;20226;-83
2022/03/16 02:58:45;;;;;;;11.30;10.90;;;6.30;99.90;;;;;;5064018;28;20230;-82
2022/03/16 03:01:15;;;;;;;11.40;11.00;;;6.20;99.90;;;;;;5063753;28;20237;-83
2022/03/16 03:03:45;;;;;;;11.43;11.03;;;6.20;99.90;;;;;;5063066;28;20226;-84
2022/03/16 03:06:14;;;;;;;11.50;11.10;;;6.20;99.90;;;;;;5063558;28;20230;-84
2022/03/16 03:08:52;;;;;;;11.60;11.20;;;6.30;99.90;;;;;;5063360;28;20239;-84
2022/03/16 03:11:21;;;;;;;11.30;10.90;;;6.30;99.90;;;;;;5063078;28;20230;-84
2022/03/16 03:13:51;;;;;;;11.30;10.90;;;6.40;99.90;;;;;;5063300;28;20240;-82
2022/03/16 03:16:20;;;;;;;11.30;10.90;;;6.40;99.90;;;;;;5063543;28;20235;-82
2022/03/16 03:18:50;;;;;;;11.50;11.10;;;6.40;99.90;;;;;;5063476;28;20241;-82
2022/03/16 03:21:19;;;;;;;11.40;11.00;;;6.50;99.90;;;;;;5063957;28;20234;-81
2022/03/16 03:23:57;;;;;;;11.23;10.83;;;6.50;99.90;;;;;;5077253;28;20241;-83
2022/03/16 03:26:27;;;;;;;11.23;10.83;;;6.50;99.90;;;;;;5074127;28;20245;-83
2022/03/16 03:28:57;;;;;;;11.50;11.10;;;6.50;99.90;;;;;;5069290;28;20233;-83
2022/03/16 03:31:26;;;;;;;11.13;10.73;;;6.60;99.90;;;;;;5064078;28;20234;-82
2022/03/16 03:33:55;;;;;;;11.37;10.97;;;6.60;99.90;;;;;;5063657;28;20222;-83
2022/03/16 03:36:24;;;;;;;11.13;10.73;;;6.70;99.90;;;;;;5063734;28;20289;-83
2022/03/16 03:39:03;;;;;;;11.40;11.00;;;6.70;99.90;;;;;;5063945;28;20238;-83
2022/03/16 03:41:32;;;;;;;11.23;10.83;;;6.70;99.90;;;;;;5065195;28;20379;-83
2022/03/16 03:44:02;;;;;;;11.13;10.73;;;6.70;99.90;;;;;;5063757;28;20238;-83
2022/03/16 03:46:31;;;;;;;11.27;10.87;;;6.70;99.90;;;;;;5063519;28;20227;-82
2022/03/16 03:49:00;;;;;;;11.03;10.63;;;6.70;99.90;;;;;;5063134;28;20262;-83
2022/03/16 03:51:33;;;;;;;11.10;10.70;;;6.70;99.90;;;;;;5062531;28;20257;-82
2022/03/16 03:54:04;;;;;;;11.00;10.60;;;6.60;99.90;;;;;;5061520;28;20242;-82
2022/03/16 03:56:32;;;;;;;11.13;10.73;;;6.40;99.90;;;;;;5062621;28;20295;-83
2022/03/16 03:59:00;;;;;;;11.37;10.97;;;6.20;99.90;;;;;;5061850;28;20250;-83
2022/03/16 04:01:30;;;;;;;11.40;11.00;;;6.20;99.90;;;;;;5061704;28;20226;-82
2022/03/16 04:04:00;;;;;;;11.37;10.97;;;6.00;99.90;;;;;;5061698;28;20249;-83
2022/03/16 04:06:29;;;;;;;11.27;10.87;;;6.00;99.90;;;;;;5061474;28;20233;-83
2022/03/16 04:08:59;;;;;;;11.40;11.00;;;5.90;99.90;;;;;;5061719;28;20229;-83
2022/03/16 04:11:30;;;;;;;11.40;11.00;;;5.90;99.90;;;;;;5061231;28;20227;-83
2022/03/16 04:13:58;;;;;;;11.40;11.00;;;6.00;99.90;;;;;;5061286;28;20238;-83
2022/03/16 04:16:26;;;;;;;11.30;10.90;;;6.00;99.90;;;;;;5066187;28;20235;-83
2022/03/16 04:18:55;;;;;;;11.10;10.70;;;6.10;99.90;;;;;;5061284;28;20230;-83
2022/03/16 04:21:25;;;;;;;11.03;10.63;;;6.10;99.90;;;;;;5060595;28;20241;-83
2022/03/16 04:23:54;;;;;;;11.03;10.63;;;6.10;99.90;;;;;;5061169;28;20234;-83
2022/03/16 04:26:24;;;;;;;10.90;10.53;;;6.20;99.90;;;;;;5061415;28;20317;-83
2022/03/16 04:29:02;;;;;;;11.13;10.73;;;6.20;99.90;;;;;;5063044;28;20230;-83
2022/03/16 04:31:31;;;;;;;11.00;10.60;;;6.20;99.90;;;;;;5077561;28;20234;-83
2022/03/16 04:34:01;;;;;;;10.90;10.50;;;6.20;99.90;;;;;;5077926;28;20237;-84
2022/03/16 04:36:31;;;;;;;10.80;10.50;;;6.20;99.90;;;;;;5078332;28;20275;-83
2022/03/16 04:38:59;;;;;;;10.87;10.50;;;6.10;99.90;;;;;;5077775;28;20230;-83
2022/03/16 04:41:29;;;;;;;10.60;10.30;;;6.10;99.90;;;;;;5079106;28;20210;-83
2022/03/16 04:44:07;;;;;;;10.83;10.47;;;6.10;99.90;;;;;;5077863;28;20245;-83
2022/03/16 04:46:38;;;;;;;10.87;10.50;;;6.20;99.90;;;;;;5076203;28;20257;-83
2022/03/16 04:49:06;;;;;;;10.73;10.43;;;6.10;99.90;;;;;;5073642;28;20219;-83
2022/03/16 04:51:36;;;;;;;10.43;10.13;;;6.10;99.90;;;;;;5067855;28;20231;-83
2022/03/16 04:54:06;;;;;;;10.40;10.10;;;6.10;99.90;;;;;;5064707;28;20230;-83
2022/03/16 04:56:35;;;;;;;10.67;10.37;;;6.10;99.90;;;;;;5064836;28;20231;-83
2022/03/16 04:59:13;;;;;;;10.60;10.30;;;6.00;99.90;;;;;;5064381;28;20298;-84
2022/03/16 05:01:42;;;;;;;11.00;10.60;;;6.00;99.90;;;;;;5073996;28;20230;-83
2022/03/16 05:04:12;;;;;;;10.70;10.40;;;6.00;99.90;;;;;;5078788;28;20244;-82
2022/03/16 05:06:41;;;;;;;10.73;10.40;;;6.00;99.90;;;;;;5076620;28;20275;-82
2022/03/16 05:09:11;;;;;;;10.90;10.50;;;6.00;99.90;;;;;;5075140;28;20237;-82
2022/03/16 05:11:40;;;;;;;11.00;10.60;;;6.00;99.90;;;;;;5073158;28;20219;-82
2022/03/16 05:14:18;;;;;;;11.40;11.00;;;5.90;99.90;;;;;;5069165;28;20310;-82
2022/03/16 05:16:48;;;;;;;11.50;11.10;;;5.90;99.90;;;;;;5064602;28;20222;-83
2022/03/16 05:19:17;;;;;;;11.30;10.90;;;5.90;99.90;;;;;;5064591;28;20235;-82
2022/03/16 05:21:47;;;;;;;11.33;10.93;;;5.80;99.90;;;;;;5063686;28;20238;-83
2022/03/16 05:24:18;;;;;;;11.50;11.10;;;5.80;99.90;;;;;;5063584;28;20237;-83
2022/03/16 05:26:46;;;;;;;11.60;11.20;;;5.70;99.90;;;;;;5068535;28;20233;-83
2022/03/16 05:32:02;;;;;;;11.20;10.80;;;5.60;99.90;;;;;;5062927;28;20237;-83
2022/03/16 05:34:32;;;;;;;11.40;11.00;;;5.60;99.90;;;;;;5062057;28;20238;-82
2022/03/16 05:37:02;;;;;;;11.50;11.10;;;5.60;99.90;;;;;;5067747;28;20274;-83
2022/03/16 05:39:31;;;;;;;11.40;11.00;;;5.60;99.90;;;;;;5073435;28;20227;-82
2022/03/16 05:42:00;;;;;;;11.37;10.97;;;5.50;99.90;;;;;;5066884;28;20230;-82
2022/03/16 05:44:38;;;;;;;11.33;10.93;;;5.50;99.90;;;;;;5063249;28;20238;-83
2022/03/16 05:47:08;;;;;;;11.40;11.00;;;5.50;99.90;;;;;;5062084;28;20696;-83
2022/03/16 05:49:38;;;;;;;11.20;10.80;;;5.50;99.90;;;;;;5063534;28;20238;-82
2022/03/16 05:52:08;;;;;;;11.80;11.40;;;5.50;99.90;;;;;;5065918;28;20230;-83
2022/03/16 05:54:38;;;;;;;11.20;10.80;;;5.50;99.90;;;;;;5064897;28;20245;-82
2022/03/16 05:57:07;;;;;;;11.50;11.10;;;5.50;99.90;;;;;;5072668;28;20215;-82
2022/03/16 05:59:39;;;;;;;11.57;11.17;;;5.40;99.90;;;;;;5068315;28;20226;-82
2022/03/16 06:02:07;;;;;;;11.73;11.33;;;5.40;99.90;;;;;;5071965;28;20230;-82
2022/03/16 06:04:36;;;;;;;11.60;11.20;;;5.50;99.90;;;;;;5064821;28;20246;-82
2022/03/16 06:07:05;;;;;;;11.50;11.10;;;5.40;99.90;;;;;;5063883;28;20306;-82
2022/03/16 06:09:35;;;;;;;11.53;11.13;;;5.40;99.90;;;;;;5064703;28;20230;-82
2022/03/16 06:12:04;;;;;;;11.10;10.70;;;5.40;99.90;;;;;;5064528;28;20266;-82
2022/03/16 06:14:34;;;;;;;11.40;11.00;;;5.50;99.90;;;;;;5064999;28;20244;-82
2022/03/16 06:17:06;;;;;;;11.50;11.10;;;5.50;99.90;;;;;;5064244;28;20227;-83
2022/03/16 06:19:33;;;;;;;11.40;11.00;;;5.50;99.90;;;;;;5064643;28;20231;-83
2022/03/16 06:22:01;;;;;;;11.37;10.97;;;5.50;99.90;;;;;;5064521;28;20293;-83
2022/03/16 06:24:31;;;;;;;11.47;11.07;;;5.50;99.90;;;;;;5064362;28;20266;-82
2022/03/16 06:27:00;;;;;;;11.60;11.20;;;5.50;99.90;;;;;;5064430;28;20231;-83
2022/03/16 06:29:29;;;;;;;11.60;11.20;;;5.50;99.90;;;;;;5064562;28;20227;-82
2022/03/16 06:31:59;;;;;;;11.63;11.23;;;5.60;99.90;;;;;;5064755;28;20281;-83
2022/03/16 06:34:37;;;;;;;11.57;11.17;;;5.60;99.90;;;;;;5063570;28;20273;-83
2022/03/16 06:37:08;;;;;;;11.27;10.87;;;5.70;99.90;;;;;;5070668;28;20229;-82
2022/03/16 06:39:36;;;;;;;11.20;10.80;;;5.80;99.90;;;;;;5064364;28;20215;-82
2022/03/16 06:42:06;;;;;;;11.37;10.97;;;5.90;99.90;;;;;;5063452;28;20286;-82
2022/03/16 06:44:35;;;;;;;11.60;11.20;;;5.90;99.90;;;;;;5064063;28;20334;-83
2022/03/16 06:47:04;;;;;;;11.37;10.97;;;6.00;99.90;;;;;;5063899;28;20246;-83
2022/03/16 06:49:43;;;;;;;11.23;10.83;;;6.10;99.90;;;;;;5063193;28;20226;-82
2022/03/16 06:52:12;;;;;;;11.00;10.60;;;6.20;99.90;;;;;;5063736;28;20242;-82
2022/03/16 06:54:40;;;;;;;11.30;10.90;;;6.30;99.90;;;;;;5095605;22;20302;-80
2022/03/16 06:57:08;;;;;;;11.40;11.00;;;6.30;99.90;;;;;;5092178;28;20230;-80
2022/03/16 06:59:36;;;;;;;11.13;10.73;;;6.40;99.90;;;;;;5087480;28;20232;-80
2022/03/16 07:02:04;;;;;;;11.40;11.00;;;6.50;99.90;;;;;;5099324;28;20230;-80
2022/03/16 07:04:33;;;;;;;11.27;10.87;;;6.50;99.90;;;;;;5089954;28;20288;-80
2022/03/16 07:07:00;;;;;;;11.40;11.00;;;6.50;99.90;;;;;;5060849;28;20227;-81
2022/03/16 07:09:32;;;;;;;11.50;11.10;;;6.50;99.90;;;;;;5062761;28;20289;-81
2022/03/16 07:11:59;;;;;;;11.47;11.07;;;6.60;99.90;;;;;;5061649;28;20233;-81
2022/03/16 07:14:33;;;;;;;11.33;10.93;;;6.50;99.90;;;;;;5070242;28;20287;-80
2022/03/16 07:17:02;;;;;;;11.80;11.40;;;6.60;99.90;;;;;;5077996;28;20225;-80
2022/03/16 07:19:30;;;;;;;11.50;11.10;;;6.60;99.90;;;;;;5103225;28;20290;-81
2022/03/16 07:22:01;;;;;;;11.40;11.00;;;6.60;99.90;;;;;;5103910;28;20263;-80
2022/03/16 07:24:29;;;;;;;11.13;10.73;;;6.70;99.90;;;;;;5102515;28;20240;-81
2022/03/16 07:27:02;;;;;;;11.27;10.87;;;6.80;99.90;;;;;;5113231;28;20213;-80
2022/03/16 07:29:30;;;;;;;11.17;10.77;;;6.90;99.90;;;;;;5116619;28;20241;-80
2022/03/16 07:31:58;;;;;;;11.60;11.20;;;6.90;99.90;;;;;;5102109;28;20252;-80
2022/03/16 07:34:26;;;;;;;11.10;10.70;;;7.00;99.90;;;;;;5100804;28;20237;-81
2022/03/16 07:36:54;;;;;;;11.60;11.20;;;7.10;99.90;;;;;;5092074;28;20222;-80
2022/03/16 07:39:23;;;;;;;11.77;11.37;;;7.10;99.90;;;;;;5067017;28;20227;-81
2022/03/16 07:41:51;;;;;;;11.60;11.20;;;7.20;99.90;;;;;;5062689;28;20245;-81
2022/03/16 07:44:19;;;;;;;11.70;11.30;;;7.30;99.90;;;;;;5063393;28;20211;-81
2022/03/16 07:46:46;;;;;;;11.57;11.17;;;7.40;99.90;;;;;;5061574;28;20227;-81
2022/03/16 07:49:14;;;;;;;11.50;11.10;;;7.60;99.90;;;;;;5060356;28;20309;-81
2022/03/16 07:51:42;;;;;;;11.70;11.30;;;7.60;99.90;;;;;;5061748;28;20239;-82
2022/03/16 07:54:10;;;;;;;11.70;11.30;;;7.70;99.90;;;;;;5060528;28;20231;-82
2022/03/16 07:56:40;;;;;;;11.70;11.30;;;7.80;99.90;;;;;;5059933;28;20235;-82
2022/03/16 07:59:08;;;;;;;11.70;11.30;;;7.80;99.90;;;;;;5060286;28;20234;-81
2022/03/16 08:01:35;;;;;;;11.60;11.20;;;7.80;99.90;;;;;;5065055;28;20237;-81
2022/03/16 08:04:06;;;;;;;11.30;10.90;;;8.00;99.90;;;;;;5089462;28;20250;-81
2022/03/16 08:06:33;;;;;;;11.07;10.77;;;8.30;99.90;;;;;;5060554;28;20231;-81
2022/03/16 08:09:01;;;;;;;11.37;10.97;;;8.40;99.90;;;;;;5062044;28;20235;-82
2022/03/16 08:11:29;;;;;;;10.90;10.60;;;8.50;99.90;;;;;;5063928;28;20226;-80
2022/03/16 08:13:58;;;;;;;10.63;10.33;;;8.60;99.90;;;;;;5073515;28;20240;-81
2022/03/16 08:16:26;;;;;;;10.60;10.30;;;8.80;99.90;;;;;;5079822;28;20268;-81
2022/03/16 08:18:54;;;;;;;10.67;10.37;;;8.70;99.90;;;;;;5080993;28;20230;-81
2022/03/16 08:21:22;;;;;;;10.53;10.23;;;8.80;99.90;;;;;;5080573;28;20765;-81
2022/03/16 08:23:51;;;;;;;10.70;10.40;;;8.90;99.90;;;;;;5081526;28;20291;-81
2022/03/16 08:26:19;;;;;;;10.50;10.20;;;9.00;99.90;;;;;;5079482;28;20232;-82
2022/03/16 08:28:47;;;;;;;10.60;10.30;;;9.10;99.90;;;;;;5080475;28;20302;-82
2022/03/16 08:31:17;;;;;;;10.20;9.90;;;9.10;99.90;;;;;;5079175;28;20230;-81
2022/03/16 08:33:45;;;;;;;10.67;10.37;;;9.20;99.90;;;;;;5079194;28;20300;-81
2022/03/16 08:36:12;;;;;;;10.57;10.27;;;9.30;99.90;;;;;;5079407;28;20241;-81
2022/03/16 08:38:41;;;;;;;10.40;10.10;;;9.20;99.90;;;;;;5078797;28;20284;-81
2022/03/16 08:41:10;;;;;;;10.23;9.93;;;9.20;99.90;;;;;;5076821;28;20230;-81
2022/03/16 08:43:38;;;;;;;10.30;10.00;;;9.40;99.90;;;;;;5072758;28;20233;-81
2022/03/16 08:46:07;;;;;;;10.23;9.93;;;9.50;99.90;;;;;;5078422;28;20288;-82
2022/03/16 08:48:37;;;;;;;10.20;9.90;;;9.60;99.90;;;;;;5078844;28;20253;-81
2022/03/16 08:51:07;;;;;;;10.30;10.00;;;9.70;99.90;;;;;;5073612;28;20230;-82
2022/03/16 08:53:37;;;;;;;10.30;10.00;;;9.80;99.90;;;;;;5079854;28;20250;-82
2022/03/16 08:56:05;;;;;;;10.23;9.93;;;9.80;99.90;;;;;;5078059;28;20237;-82
2022/03/16 08:58:33;;;;;;;10.13;9.83;;;9.80;99.90;;;;;;5079817;28;20238;-82
2022/03/16 09:01:01;;;;;;;10.07;9.77;;;9.70;99.90;;;;;;5079286;28;20259;-82
2022/03/16 09:03:29;;;;;;;10.00;9.70;;;9.80;99.90;;;;;;5078641;28;20624;-81
2022/03/16 09:05:59;;;;;;;10.10;9.80;;;9.80;99.90;;;;;;5079808;28;20324;-83
2022/03/16 09:08:26;;;;;;;10.20;9.90;;;9.90;99.90;;;;;;5078437;28;20321;-82
2022/03/16 09:10:59;;;;;;;10.23;9.93;;;9.90;99.90;;;;;;5076758;28;20233;-81
2022/03/16 09:13:27;;;;;;;10.40;10.10;;;10.00;99.90;;;;;;5067669;28;20305;-82
2022/03/16 09:15:56;;;;;;;10.30;10.00;;;10.30;99.90;;;;;;5063201;28;20235;-83
2022/03/16 09:18:24;;;;;;;10.10;9.80;;;10.60;99.90;;;;;;5077693;28;20234;-82
2022/03/16 09:20:53;;;;;;;10.20;9.90;;;10.60;99.90;;;;;;5079641;28;20234;-81
2022/03/16 09:23:22;;;;;;;10.20;9.90;;;10.70;99.90;;;;;;5087390;28;20237;-81
2022/03/16 09:25:50;;;;;;;10.20;9.90;;;10.70;99.90;;;;;;5078394;28;20238;-82
2022/03/16 09:28:24;;;;;;;10.10;9.80;;;10.70;99.90;;;;;;5068708;28;20239;-82
2022/03/16 09:30:53;;;;;;;10.40;10.10;;;10.60;99.90;;;;;;5062434;28;20234;-82
2022/03/16 09:33:21;;;;;;;10.27;9.97;;;10.60;99.90;;;;;;5061097;28;20238;-81
2022/03/16 09:35:55;;;;;;;10.27;9.97;;;10.90;99.90;;;;;;5061467;28;20724;-81
2022/03/16 09:38:25;;;;;;;10.30;10.00;;;11.00;99.90;;;;;;5063462;28;20238;-81
2022/03/16 09:40:56;;;;;;;10.23;9.93;;;11.10;99.90;;;;;;5062218;28;20328;-82
2022/03/16 09:43:27;;;;;;;10.40;10.10;;;11.30;99.90;;;;;;5060292;28;20292;-82
2022/03/16 09:45:57;;;;;;;10.33;10.03;;;11.50;99.90;;;;;;5063235;28;20226;-82
2022/03/16 09:48:26;;;;;;;10.37;10.07;;;11.70;99.90;;;;;;5063787;28;20246;-79
2022/03/16 09:50:54;;;;;;;10.63;10.33;;;11.90;99.90;;;;;;5058583;28;20234;-79
2022/03/16 09:53:26;;;;;;;10.63;10.33;;;12.10;99.90;;;;;;5060429;28;20231;-80
2022/03/16 09:55:55;;;;;;;10.30;10.00;;;12.10;99.90;;;;;;5059094;28;20317;-81
2022/03/16 09:58:22;;;;;;;10.60;10.30;;;12.20;99.90;;;;;;5059987;28;20245;-80
2022/03/16 10:00:52;;;;;;;10.03;9.73;;;12.20;99.90;;;;;;5061202;28;20235;-81
2022/03/16 10:03:22;;;;;;;10.50;10.20;;;12.10;99.90;;;;;;5058991;28;20284;-80
2022/03/16 10:05:51;;;;;;;10.50;10.20;;;11.80;99.90;;;;;;5058647;28;20285;-80
2022/03/16 10:08:31;;;;;;;10.40;10.10;;;11.90;99.90;;;;;;5058829;28;20230;-79
2022/03/16 10:13:57;;;;;;;10.40;10.10;;;12.00;99.90;;;;;;5059469;28;20211;-80
2022/03/16 10:17:43;;;;;;;10.60;10.30;;;12.00;99.90;;;;;;5061046;28;20303;-79
2022/03/16 10:19:13;;;;;;;10.80;10.50;;;12.00;99.90;;;;;;5075730;28;20258;-79
2022/03/16 10:21:41;;;;;;;10.77;10.47;;;12.40;99.90;;;;;;5069421;28;20235;-81
2022/03/16 10:24:13;;;;;;;10.57;10.27;;;12.50;99.90;;;;;;5069003;28;20294;-80
2022/03/16 10:26:52;;;;;;;10.50;10.20;;;12.50;99.90;;;;;;5060236;28;20231;-80
2022/03/16 10:29:23;;;;;;;10.70;10.40;;;12.50;99.90;;;;;;5060510;28;20262;-80
2022/03/16 10:32:06;;;;;;;10.80;10.50;;;12.60;99.90;;;;;;5075291;28;20261;-80
2022/03/16 10:34:36;;;;;;;10.40;10.10;;;12.50;99.90;;;;;;5078665;28;20264;-79
2022/03/16 10:37:20;;;;;;;10.70;10.40;;;12.50;99.90;;;;;;5060074;28;20226;-80
2022/03/16 10:39:53;;;;;;;10.70;10.40;;;12.40;99.90;;;;;;5059513;28;20241;-80
2022/03/16 10:48:02;;;;;;;10.80;10.50;;;12.90;99.90;;;;;;5024297;28;20223;-79
2022/03/16 10:50:30;;;;;;;10.43;10.13;;;12.70;99.90;;;;;;5058284;28;20778;-79
2022/03/16 10:52:58;;;;;;;10.50;10.20;;;12.80;99.90;;;;;;5059126;28;20231;-80
2022/03/16 10:55:27;;;;;;;10.50;10.20;;;12.90;99.90;;;;;;5058145;28;20235;-80
2022/03/16 10:57:55;;;;;;;10.60;10.30;;;13.00;99.90;;;;;;5058156;28;20234;-81
2022/03/16 11:00:27;;;;;;;10.47;10.17;;;12.80;99.90;;;;;;5073764;28;20288;-80
2022/03/16 11:02:57;;;;;;;10.60;10.30;;;12.60;99.90;;;;;;5081326;28;20218;-80
2022/03/16 11:05:26;;;;;;;10.53;10.23;;;12.70;99.90;;;;;;5092252;28;20233;-80
2022/03/16 11:07:54;;;;;;;10.60;10.30;;;12.70;99.90;;;;;;5100307;28;20210;-81
2022/03/16 11:10:22;;;;;;;10.30;10.00;;;12.70;99.90;;;;;;5094380;28;20226;-82
2022/03/16 11:15:38;;;;;;;10.60;10.30;;;13.20;99.90;;;;;;5080436;28;20214;-82
2022/03/16 11:18:06;;;;;;;10.30;10.00;;;13.40;99.90;;;;;;5080233;28;20234;-82
2022/03/16 11:20:35;;;;;;;10.60;10.30;;;13.40;99.90;;;;;;5079757;28;20250;-79
2022/03/16 11:26:16;;;;;;;10.10;9.80;;;13.10;99.90;;;;;;5076471;28;20234;-80
2022/03/16 11:29:10;;;;;;;10.40;10.10;;;12.90;99.90;;;;;;5081038;28;20230;-79
2022/03/16 11:31:42;;;;;;;10.30;10.00;;;12.50;99.90;;;;;;5082040;28;20329;-82
2022/03/16 11:34:10;;;;;;;10.60;10.30;;;12.40;99.90;;;;;;5080106;28;20237;-80
2022/03/16 11:36:41;;;;;;;10.50;10.20;;;12.30;99.90;;;;;;5080570;28;20238;-82
2022/03/16 11:39:18;;;;;;;10.50;10.20;;;12.50;99.90;;;;;;5079949;28;20317;-82
2022/03/16 11:41:54;;;;;;;10.73;10.43;;;12.50;99.90;;;;;;5080815;28;20229;-81
2022/03/16 11:44:32;;;;;;;10.67;10.37;;;12.50;99.90;;;;;;5079697;28;20232;-81
2022/03/16 11:47:37;;;;;;;10.50;10.20;;;12.50;99.90;;;;;;5079841;28;20296;-82
2022/03/16 11:50:11;;;;;;;10.60;10.30;;;12.60;99.90;;;;;;5084669;28;20222;-82
2022/03/16 11:53:05;;;;;;;10.80;10.50;;;12.70;99.90;;;;;;5085373;28;20285;-82
2022/03/16 11:55:42;;;;;;;10.77;10.47;;;12.90;99.90;;;;;;5081704;28;20268;-81
2022/03/16 11:58:31;;;;;;;10.80;10.50;;;13.30;99.90;;;;;;5080413;28;20234;-81
2022/03/16 12:01:29;;;;;;;10.67;10.37;;;13.60;99.90;;;;;;5081210;28;20233;-81
2022/03/16 12:04:15;;;;;;;10.80;10.50;;;13.70;99.90;;;;;;5080876;28;20234;-81
2022/03/16 12:06:56;;;;;;;10.80;10.50;;;13.80;99.90;;;;;;5089595;28;20218;-80
2022/03/16 12:09:34;;;;;;;10.60;10.30;;;13.60;99.90;;;;;;5094194;28;20256;-79
2022/03/16 12:15:21;;;;;;;10.60;10.30;;;14.00;99.90;;;;;;5095486;28;20209;-82
2022/03/16 12:18:34;;;;;;;10.80;10.50;;;13.90;99.90;;;;;;5093979;28;20230;-82
2022/03/16 12:21:10;;;;;;;10.80;10.50;;;13.90;99.90;;;;;;5087545;28;20230;-81
2022/03/16 12:28:55;;;;;;;11.30;10.93;;;14.60;99.90;;;;;;5093537;28;20232;-82
2022/03/16 12:29:32;;;;;;;11.30;10.90;;;15.00;99.90;;;;;;5081886;28;20294;-80
2022/03/16 12:32:00;;;;;;;10.90;10.60;;;14.80;99.90;;;;;;5091349;28;20210;-80
2022/03/16 12:34:30;;;;;;;11.10;10.80;;;14.50;99.90;;;;;;5089506;28;21031;-80
2022/03/16 12:37:01;;;;;;;11.30;10.90;;;14.40;99.90;;;;;;5092137;28;20238;-81
2022/03/16 12:39:29;;;;;;;11.10;10.80;;;14.90;99.90;;;;;;5091603;28;20233;-80
2022/03/16 12:44:55;;;;;;;10.98;10.68;;;15.20;99.90;;;;;;5082426;28;20235;-83
2022/03/16 12:47:31;;;;;;;10.90;10.60;;;14.70;99.90;;;;;;5070568;28;20230;-83
2022/03/16 12:50:03;;;;;;;11.03;10.73;;;14.70;99.90;;;;;;5071741;28;20225;-83
2022/03/16 12:52:31;;;;;;;10.45;10.15;;;14.60;99.90;;;;;;5072281;28;20223;-83
2022/03/16 12:55:00;;;;;;;11.10;10.80;;;14.60;99.90;;;;;;5091754;28;20290;-85
2022/03/16 14:34:19;;;;;;;10.68;10.38;;;17.30;99.90;;;;;;4691854;30;20219;-92
2022/03/16 14:39:38;;;;;;;10.90;10.60;;;16.80;99.90;;;;;;4879239;29;20269;-89
2022/03/16 16:37:17;;;;;;;10.60;10.30;;;12.40;99.90;;;;;;5061525;28;20226;-87
2022/03/16 17:40:07;;;;;;;9.53;9.23;;;11.80;99.90;;;;;;5040566;28;20274;-87
2022/03/16 17:46:42;;;;;;;9.60;9.30;;;11.50;99.90;;;;;;5072435;28;20234;-90
2022/03/16 17:56:53;;;;;;;9.80;9.50;;;11.10;99.90;;;;;;4913422;28;20321;-90
2022/03/16 17:59:26;;;;;;;10.00;9.70;;;10.90;99.90;;;;;;5031199;28;20252;-91
2022/03/16 18:02:07;;;;;;;9.60;9.30;;;10.90;99.90;;;;;;5053012;28;20258;-91
2022/03/16 18:04:58;;;;;;;9.63;9.33;;;10.90;99.90;;;;;;5069825;28;20234;-91
2022/03/16 18:07:30;;;;;;;9.77;9.47;;;10.80;99.90;;;;;;5051194;28;20292;-91
2022/03/16 18:13:05;;;;;;;9.70;9.40;;;10.70;99.90;;;;;;5071184;28;20207;-91